< < Back
Terminal Aerodrome Forecast


Current Version              Previous Versions:   1  2  3  4  5  6  7  8  9  

Terminal Aerodrome Forecast

023
FTUS42 KGSP 211700
TAFGSP
TAF
KGSP 211727Z 2118/2218 36005KT P6SM FEW050 SCT250
     FM220000 24003KT P6SM SCT200
     FM221400 34005KT P6SM FEW050 SCT200=



Latest METAR

322
SAUS70 KWBC 220700 RRA
MTRGSP
METAR KGSP 220653Z AUTO 00000KT 10SM CLR 24/22 A3006 RMK AO2 SLP165
T02390222


USA.gov is the U.S. government's official web portal to all federal, state and local government web resources and services.